createdAt,value
2022-12-14T00:01:49.360Z,90505.38
2022-12-14T00:04:37.357Z,90502.22
2022-12-14T00:07:24.922Z,90505.81
2022-12-14T00:10:12.529Z,90509.22
2022-12-14T00:13:00.097Z,90511.22
2022-12-14T00:15:47.738Z,90507.03
2022-12-14T00:18:35.325Z,90502.63
2022-12-14T00:21:22.911Z,90493.44
2022-12-14T00:24:10.495Z,90499.66
2022-12-14T00:26:58.198Z,90490.28
2022-12-14T00:29:45.772Z,90494.34
2022-12-14T00:32:33.358Z,90498.44
2022-12-14T00:35:20.914Z,90489.94
2022-12-14T00:38:08.503Z,90484.91
2022-12-14T00:40:56.062Z,90477.91
2022-12-14T00:43:43.838Z,90474.81
2022-12-14T00:46:31.428Z,90476.63
2022-12-14T00:49:19.091Z,90477.88
2022-12-14T00:52:06.685Z,90475.09
2022-12-14T00:54:54.307Z,90474.06
2022-12-14T00:57:41.877Z,90478.00
2022-12-14T01:00:29.495Z,90468.47
2022-12-14T01:03:17.094Z,90470.31
2022-12-14T01:06:04.684Z,90475.66
2022-12-14T01:08:52.230Z,90469.41
2022-12-14T01:11:39.824Z,90469.06
2022-12-14T01:14:27.402Z,90474.59
2022-12-14T01:17:14.999Z,90498.41
2022-12-14T01:20:02.589Z,90511.09
2022-12-14T01:22:50.174Z,90495.25
2022-12-14T01:25:37.728Z,90489.22
2022-12-14T01:28:25.313Z,90480.94
2022-12-14T01:31:12.926Z,90484.81
2022-12-14T01:34:00.618Z,90485.56
2022-12-14T01:36:48.188Z,90482.63
2022-12-14T01:39:35.765Z,90483.09
2022-12-14T01:42:23.336Z,90486.47
2022-12-14T01:45:10.945Z,90492.03
2022-12-14T01:47:58.548Z,90477.06
2022-12-14T01:50:46.146Z,90476.56
2022-12-14T01:53:33.716Z,90474.03
2022-12-14T01:56:21.310Z,90473.50
2022-12-14T01:59:08.883Z,90463.63
2022-12-14T02:01:56.529Z,90467.53
2022-12-14T02:04:44.199Z,90471.63
2022-12-14T02:07:33.841Z,90462.22
2022-12-14T02:10:21.436Z,90458.00
2022-12-14T02:13:09.026Z,90455.59
2022-12-14T02:15:56.613Z,90458.34
2022-12-14T02:18:44.234Z,90455.72
2022-12-14T02:21:31.842Z,90456.88
2022-12-14T02:24:19.404Z,90456.22
2022-12-14T02:27:07.016Z,90443.88
2022-12-14T02:29:54.579Z,90448.78
2022-12-14T02:32:42.197Z,90442.25
2022-12-14T02:35:29.804Z,90440.66
2022-12-14T02:38:17.383Z,90435.97
2022-12-14T02:41:04.957Z,90442.59
2022-12-14T02:43:52.519Z,90435.88
2022-12-14T02:46:40.141Z,90424.78
2022-12-14T02:49:27.746Z,90427.44
2022-12-14T02:52:15.321Z,90427.53
2022-12-14T02:55:02.907Z,90423.09
2022-12-14T02:57:50.490Z,90419.72
2022-12-14T03:00:38.099Z,90422.75
2022-12-14T03:03:26.177Z,90429.56
2022-12-14T03:06:14.082Z,90420.16
2022-12-14T03:09:01.640Z,90406.00
2022-12-14T03:11:49.214Z,90402.19
2022-12-14T03:14:36.796Z,90395.47
2022-12-14T03:17:24.427Z,90396.38
2022-12-14T03:20:12.019Z,90389.31
2022-12-14T03:23:01.648Z,90386.44
2022-12-14T03:25:49.230Z,90398.63
2022-12-14T03:28:36.837Z,90392.28
2022-12-14T03:31:24.454Z,90388.94
2022-12-14T03:34:13.307Z,90386.72
2022-12-14T03:37:01.136Z,90387.94
2022-12-14T03:39:48.736Z,90373.38
2022-12-14T03:42:36.315Z,90385.31
2022-12-14T03:45:23.982Z,90387.94
2022-12-14T03:48:11.569Z,90387.19
2022-12-14T03:50:59.149Z,90388.69
2022-12-14T03:53:46.716Z,90386.81
2022-12-14T03:56:34.295Z,90377.41
2022-12-14T03:59:21.867Z,90386.00
2022-12-14T04:02:09.549Z,90390.50
2022-12-14T04:04:57.232Z,90388.59
2022-12-14T04:07:44.843Z,90374.38
2022-12-14T04:10:32.618Z,90372.16
2022-12-14T04:13:40.189Z,90369.66
2022-12-14T04:16:42.759Z,90360.28
2022-12-14T04:19:30.374Z,90369.69
2022-12-14T04:22:17.930Z,90366.28
2022-12-14T04:25:05.527Z,90373.63
2022-12-14T04:27:53.107Z,90371.88
2022-12-14T04:30:40.670Z,90365.81
2022-12-14T04:33:28.660Z,90359.50
2022-12-14T04:36:16.467Z,90358.78
2022-12-14T04:39:04.073Z,90357.34
2022-12-14T04:41:51.622Z,90360.81
2022-12-14T04:44:39.218Z,90357.94
2022-12-14T04:47:26.762Z,90345.72
2022-12-14T04:50:14.346Z,90353.53
2022-12-14T04:53:01.907Z,90347.28
2022-12-14T04:55:49.489Z,90341.31
2022-12-14T04:58:37.045Z,90333.06
2022-12-14T05:01:24.645Z,90334.94
2022-12-14T05:04:12.877Z,90330.06
2022-12-14T05:07:00.682Z,90328.63
2022-12-14T05:09:48.258Z,90328.25
2022-12-14T05:12:35.831Z,90324.09
2022-12-14T05:15:23.401Z,90324.16
2022-12-14T05:18:10.995Z,90336.41
2022-12-14T05:20:58.568Z,90330.03
2022-12-14T05:23:46.154Z,90324.06
2022-12-14T05:26:33.733Z,90328.97
2022-12-14T05:29:21.337Z,90331.22
2022-12-14T05:32:08.926Z,90327.84
2022-12-14T05:34:56.499Z,90331.97
2022-12-14T05:37:44.071Z,90341.63
2022-12-14T05:40:31.675Z,90339.00
2022-12-14T05:43:19.241Z,90333.03
2022-12-14T05:46:06.852Z,90334.91
2022-12-14T05:48:54.440Z,90333.03
2022-12-14T05:51:42.019Z,90328.56
2022-12-14T05:54:29.559Z,90329.31
2022-12-14T05:57:17.131Z,90332.72
2022-12-14T06:00:04.673Z,90331.94
2022-12-14T06:02:52.300Z,90326.69
2022-12-14T06:05:39.911Z,90322.97
2022-12-14T06:08:27.484Z,90319.22
2022-12-14T06:11:15.093Z,90312.91
2022-12-14T06:14:02.638Z,90318.88
2022-12-14T06:16:50.233Z,90321.16
2022-12-14T06:19:37.827Z,90317.78
2022-12-14T06:22:25.377Z,90326.75
2022-12-14T06:25:12.967Z,90323.41
2022-12-14T06:28:00.514Z,90330.41
2022-12-14T06:30:48.151Z,90319.66
2022-12-14T06:33:35.735Z,90325.22
2022-12-14T06:36:23.315Z,90333.38
2022-12-14T06:39:10.887Z,90333.38
2022-12-14T06:41:58.576Z,90322.22
2022-12-14T06:44:48.121Z,90325.88
2022-12-14T06:47:35.735Z,90326.97
2022-12-14T06:50:23.270Z,90317.66
2022-12-14T06:53:10.856Z,90324.88
2022-12-14T06:55:58.428Z,90338.47
2022-12-14T06:58:46.053Z,90331.00
2022-12-14T07:01:33.692Z,90349.75
2022-12-14T07:04:21.697Z,90347.25
2022-12-14T07:07:09.408Z,90338.28
2022-12-14T07:09:57.036Z,90339.75
2022-12-14T07:12:44.591Z,90340.13
2022-12-14T07:15:32.240Z,90347.19
2022-12-14T07:18:19.871Z,90360.28
2022-12-14T07:21:07.469Z,90354.75
2022-12-14T07:23:55.026Z,90349.44
2022-12-14T07:26:42.602Z,90357.63
2022-12-14T07:29:34.509Z,90345.34
2022-12-14T07:32:22.641Z,90359.81
2022-12-14T07:35:16.283Z,90350.84
2022-12-14T07:38:04.201Z,90352.34
2022-12-14T07:40:51.779Z,90367.66
2022-12-14T07:43:39.389Z,90364.38
2022-12-14T07:46:28.993Z,90373.25
2022-12-14T07:49:16.642Z,90372.78
2022-12-14T07:52:04.187Z,90364.63
2022-12-14T07:54:51.764Z,90356.72
2022-12-14T07:57:39.399Z,90365.38
2022-12-14T08:00:27.008Z,90370.56
2022-12-14T08:03:14.627Z,90368.66
2022-12-14T08:06:02.219Z,90362.56
2022-12-14T08:08:49.798Z,90361.09
2022-12-14T08:11:37.414Z,90340.88
2022-12-14T08:14:24.965Z,90351.56
2022-12-14T08:17:12.547Z,90358.59
2022-12-14T08:20:02.103Z,90360.03
2022-12-14T08:22:49.705Z,90370.25
2022-12-14T08:25:37.281Z,90369.81
2022-12-14T08:28:24.859Z,90378.38
2022-12-14T08:31:12.486Z,90384.09
2022-12-14T08:34:00.159Z,90372.81
2022-12-14T08:36:47.779Z,90371.34
2022-12-14T08:39:35.345Z,90387.97
2022-12-14T08:42:22.923Z,90385.53
2022-12-14T08:45:10.464Z,90374.97
2022-12-14T08:47:58.054Z,90359.69
2022-12-14T08:50:45.600Z,90371.66
2022-12-14T08:53:37.540Z,90378.19
2022-12-14T08:56:25.102Z,90379.34
2022-12-14T08:59:29.905Z,90378.50
2022-12-14T09:02:20.569Z,90375.13
2022-12-14T09:05:08.269Z,90368.06
2022-12-14T09:07:55.821Z,90366.94
2022-12-14T09:10:43.389Z,90380.34
2022-12-14T09:13:31.389Z,90389.31
2022-12-14T09:16:19.348Z,90409.13
2022-12-14T09:19:06.935Z,90402.50
2022-12-14T09:21:54.578Z,90398.72
2022-12-14T09:24:42.160Z,90388.69
2022-12-14T09:27:29.727Z,90402.09
2022-12-14T09:30:21.695Z,90415.41
2022-12-14T09:33:12.436Z,90402.50
2022-12-14T09:35:59.995Z,90412.94
2022-12-14T09:38:51.487Z,90410.69
2022-12-14T09:41:39.649Z,90418.16
2022-12-14T09:44:27.253Z,90424.50
2022-12-14T09:47:14.811Z,90413.69
2022-12-14T09:50:02.395Z,90415.53
2022-12-14T09:52:49.963Z,90414.44
2022-12-14T09:55:37.632Z,90421.88
2022-12-14T09:58:25.226Z,90419.28
2022-12-14T10:01:14.798Z,90416.69
2022-12-14T10:04:02.513Z,90411.06
2022-12-14T10:06:50.115Z,90418.53
2022-12-14T10:09:37.686Z,90416.66
2022-12-14T10:12:29.714Z,90409.19
2022-12-14T10:15:20.140Z,90411.81
2022-12-14T10:18:09.079Z,90417.41
2022-12-14T10:21:05.246Z,90418.16
2022-12-14T10:23:52.815Z,90411.06
2022-12-14T10:26:40.358Z,90406.22
2022-12-14T10:29:28.022Z,90410.66
2022-12-14T10:32:15.555Z,90407.34
2022-12-14T10:35:03.110Z,90401.75
2022-12-14T10:37:50.675Z,90399.50
2022-12-14T10:40:38.278Z,90395.38
2022-12-14T10:43:25.818Z,90392.03
2022-12-14T10:46:14.447Z,90379.97
2022-12-14T10:49:02.330Z,90374.78
2022-12-14T10:51:49.928Z,90379.59
2022-12-14T10:54:37.471Z,90376.19
2022-12-14T10:57:25.024Z,90378.50
2022-12-14T11:00:18.448Z,90380.28
2022-12-14T11:03:10.041Z,90378.50
2022-12-14T11:05:57.685Z,90380.72
2022-12-14T11:08:48.315Z,90371.38
2022-12-14T11:11:36.250Z,90375.94
2022-12-14T11:14:23.823Z,90384.44
2022-12-14T11:17:11.461Z,90381.91
2022-12-14T11:19:59.048Z,90379.25
2022-12-14T11:22:46.630Z,90387.84
2022-12-14T11:25:34.181Z,90387.50
2022-12-14T11:28:21.768Z,90370.38
2022-12-14T11:31:09.448Z,90369.22
2022-12-14T11:33:57.159Z,90358.34
2022-12-14T11:36:44.699Z,90364.31
2022-12-14T11:39:32.249Z,90361.69
2022-12-14T11:42:19.827Z,90364.00
2022-12-14T11:45:07.372Z,90363.16
2022-12-14T11:47:54.907Z,90368.63
2022-12-14T11:50:42.565Z,90370.47
2022-12-14T11:53:30.357Z,90374.91
2022-12-14T11:56:17.979Z,90367.38
2022-12-14T11:59:05.510Z,90359.69
2022-12-14T12:01:53.129Z,90359.09
2022-12-14T12:04:40.725Z,90367.84
2022-12-14T12:07:28.293Z,90361.03
2022-12-14T12:10:15.839Z,90369.31
2022-12-14T12:13:03.414Z,90382.66
2022-12-14T12:15:50.992Z,90377.81
2022-12-14T12:18:45.825Z,90379.78
2022-12-14T12:21:33.948Z,90388.59
2022-12-14T12:24:21.519Z,90381.88
2022-12-14T12:27:09.087Z,90380.81
2022-12-14T12:29:56.719Z,90377.84
2022-12-14T12:32:44.283Z,90381.41
2022-12-14T12:35:37.446Z,90383.63
2022-12-14T12:38:24.995Z,90379.97
2022-12-14T12:41:12.558Z,90375.16
2022-12-14T12:44:00.138Z,90385.56
2022-12-14T12:47:22.272Z,90395.63
2022-12-14T12:49:55.181Z,90391.81
2022-12-14T12:52:42.751Z,90401.47
2022-12-14T12:55:30.327Z,90401.94
2022-12-14T12:58:17.891Z,90407.19
2022-12-14T13:01:05.469Z,90408.22
2022-12-14T13:03:53.142Z,90409.34
2022-12-14T13:06:40.737Z,90425.47
2022-12-14T13:09:28.327Z,90411.50
2022-12-14T13:12:15.898Z,90420.97
2022-12-14T13:15:05.476Z,90417.69
2022-12-14T13:17:53.046Z,90426.88
2022-12-14T13:20:40.598Z,90431.41
2022-12-14T13:23:45.225Z,90431.06
2022-12-14T13:26:57.375Z,90431.88
2022-12-14T13:29:40.808Z,90434.03
2022-12-14T13:32:32.315Z,90427.75
2022-12-14T13:35:24.441Z,90437.47
2022-12-14T13:38:12.011Z,90440.00
2022-12-14T13:40:59.584Z,90435.44
2022-12-14T13:43:47.178Z,90433.63
2022-12-14T13:46:34.859Z,90439.28
2022-12-14T13:49:22.454Z,90434.66
2022-12-14T13:52:10.450Z,90438.50
2022-12-14T13:54:58.075Z,90441.94
2022-12-14T13:57:45.626Z,90435.88
2022-12-14T14:00:37.088Z,90448.03
2022-12-14T14:03:24.784Z,90450.44
2022-12-14T14:06:12.437Z,90456.75
2022-12-14T14:08:59.988Z,90443.66
2022-12-14T14:11:47.566Z,90453.34
2022-12-14T14:14:35.141Z,90462.13
2022-12-14T14:17:22.755Z,90458.56
2022-12-14T14:20:10.341Z,90459.66
2022-12-14T14:22:57.923Z,90465.69
2022-12-14T14:25:45.592Z,90457.81
2022-12-14T14:28:36.572Z,90462.97
2022-12-14T14:31:24.516Z,90464.09
2022-12-14T14:34:14.891Z,90471.56
2022-12-14T14:37:04.830Z,90472.84
2022-12-14T14:40:00.494Z,90475.56
2022-12-14T14:42:52.402Z,90478.44
2022-12-14T14:45:39.990Z,90484.41
2022-12-14T14:48:27.800Z,90487.31
2022-12-14T14:51:15.586Z,90494.00
2022-12-14T14:54:03.151Z,90496.69
2022-12-14T14:56:50.707Z,90503.44
2022-12-14T14:59:38.298Z,90505.69
2022-12-14T15:02:27.778Z,90498.34
2022-12-14T15:05:41.592Z,90503.50
2022-12-14T15:08:22.876Z,90506.56
2022-12-14T15:11:10.467Z,90505.44
2022-12-14T15:13:58.043Z,90496.38
2022-12-14T15:16:45.748Z,90494.44
2022-12-14T15:19:33.388Z,90499.03
2022-12-14T15:22:20.981Z,90505.06
2022-12-14T15:25:08.583Z,90503.88
2022-12-14T15:27:56.175Z,90499.44
2022-12-14T15:30:43.724Z,90503.44
2022-12-14T15:33:31.708Z,90498.75
2022-12-14T15:36:19.676Z,90496.53
2022-12-14T15:39:07.265Z,90512.25
2022-12-14T15:41:54.850Z,90510.69
2022-12-14T15:44:42.402Z,90509.81
2022-12-14T15:47:29.984Z,90512.41
2022-12-14T15:50:17.583Z,90510.00
2022-12-14T15:53:05.155Z,90517.78
2022-12-14T15:56:00.364Z,90516.25
2022-12-14T15:58:49.731Z,90522.28
2022-12-14T16:01:37.417Z,90517.31
2022-12-14T16:04:25.189Z,90516.59
2022-12-14T16:07:12.762Z,90514.09
2022-12-14T16:10:00.423Z,90516.84
2022-12-14T16:12:47.995Z,90521.56
2022-12-14T16:15:35.565Z,90521.16
2022-12-14T16:18:23.143Z,90532.44
2022-12-14T16:21:10.726Z,90533.66
2022-12-14T16:23:58.276Z,90534.59
2022-12-14T16:26:45.823Z,90536.19
2022-12-14T16:29:33.415Z,90537.03
2022-12-14T16:32:20.994Z,90541.38
2022-12-14T16:35:08.594Z,90536.41
2022-12-14T16:37:56.154Z,90533.06
2022-12-14T16:40:43.717Z,90529.34
2022-12-14T16:43:31.881Z,90522.94
2022-12-14T16:46:19.957Z,90526.09
2022-12-14T16:49:07.699Z,90520.81
2022-12-14T16:52:10.629Z,90522.59
2022-12-14T16:55:00.195Z,90523.47
2022-12-14T16:57:47.773Z,90518.44
2022-12-14T17:00:35.328Z,90516.03
2022-12-14T17:03:23.204Z,90524.41
2022-12-14T17:06:10.952Z,90528.81
2022-12-14T17:08:58.522Z,90525.88
2022-12-14T17:11:46.178Z,90533.72
2022-12-14T17:14:33.730Z,90526.88
2022-12-14T17:17:21.341Z,90523.88
2022-12-14T17:20:13.662Z,90527.97
2022-12-14T17:23:02.462Z,90525.06
2022-12-14T17:25:50.061Z,90516.75
2022-12-14T17:28:37.638Z,90523.50
2022-12-14T17:31:25.342Z,90519.44
2022-12-14T17:34:13.130Z,90518.22
2022-12-14T17:37:00.707Z,90528.03
2022-12-14T17:39:48.291Z,90519.47
2022-12-14T17:42:35.833Z,90518.31
2022-12-14T17:45:23.396Z,90510.16
2022-12-14T17:48:10.931Z,90510.75
2022-12-14T17:50:58.488Z,90517.97
2022-12-14T17:53:46.019Z,90513.53
2022-12-14T17:56:33.583Z,90516.16
2022-12-14T17:59:21.141Z,90505.69
2022-12-14T18:02:08.836Z,90499.91
2022-12-14T18:04:56.447Z,90501.16
2022-12-14T18:07:44.015Z,90516.41
2022-12-14T18:10:31.574Z,90502.91
2022-12-14T18:13:19.123Z,90506.66
2022-12-14T18:16:06.779Z,90514.38
2022-12-14T18:18:54.397Z,90511.09
2022-12-14T18:21:41.993Z,90515.31
2022-12-14T18:24:29.563Z,90520.38
2022-12-14T18:27:17.130Z,90514.44
2022-12-14T18:30:04.709Z,90513.97
2022-12-14T18:32:52.289Z,90513.81
2022-12-14T18:35:39.845Z,90516.50
2022-12-14T18:38:27.442Z,90517.66
2022-12-14T18:41:15.007Z,90515.56
2022-12-14T18:44:02.888Z,90515.03
2022-12-14T18:46:50.820Z,90518.31
2022-12-14T18:49:38.448Z,90522.66
2022-12-14T18:52:26.003Z,90527.47
2022-12-14T18:55:13.715Z,90531.56
2022-12-14T18:58:01.365Z,90531.47
2022-12-14T19:00:48.997Z,90530.81
2022-12-14T19:03:36.853Z,90531.81
2022-12-14T19:09:32.284Z,90528.75
2022-12-14T19:12:19.838Z,90531.38
2022-12-14T19:15:07.401Z,90520.88
2022-12-14T19:17:54.936Z,90527.28
2022-12-14T19:20:42.510Z,90517.56
2022-12-14T19:23:32.481Z,90538.53
2022-12-14T19:26:20.465Z,90533.22
2022-12-14T19:29:08.047Z,90532.06
2022-12-14T19:31:59.061Z,90539.72
2022-12-14T19:34:49.387Z,90538.66
2022-12-14T19:37:36.992Z,90540.22
2022-12-14T19:40:24.591Z,90542.97
2022-12-14T19:43:12.178Z,90539.72
2022-12-14T19:45:59.723Z,90541.41
2022-12-14T19:48:47.346Z,90537.72
2022-12-14T19:51:34.931Z,90540.69
2022-12-14T19:54:22.502Z,90547.53
2022-12-14T19:57:10.090Z,90554.91
2022-12-14T19:59:57.715Z,90555.56
2022-12-14T20:02:45.416Z,90561.16
2022-12-14T20:05:37.475Z,90549.06
2022-12-14T20:08:25.062Z,90550.56
2022-12-14T20:11:12.628Z,90546.81
2022-12-14T20:14:03.106Z,90544.25
2022-12-14T20:16:51.009Z,90542.66
2022-12-14T20:19:38.633Z,90546.25
2022-12-14T20:22:26.208Z,90534.56
2022-12-14T20:25:13.747Z,90529.13
2022-12-14T20:28:01.325Z,90531.44
2022-12-14T20:30:48.911Z,90541.03
2022-12-14T20:33:36.789Z,90543.09
2022-12-14T20:36:24.708Z,90551.69
2022-12-14T20:39:12.319Z,90562.06
2022-12-14T20:41:59.914Z,90561.31
2022-12-14T20:44:49.404Z,90561.56
2022-12-14T20:47:37.185Z,90560.06
2022-12-14T20:50:24.762Z,90554.50
2022-12-14T20:53:12.351Z,90566.28
2022-12-14T20:55:59.913Z,90569.38
2022-12-14T20:58:47.463Z,90570.28
2022-12-14T21:01:35.116Z,90569.38
2022-12-14T21:04:22.821Z,90574.97
2022-12-14T21:07:10.373Z,90569.25
2022-12-14T21:09:57.934Z,90568.47
2022-12-14T21:12:45.518Z,90569.34
2022-12-14T21:15:33.095Z,90567.56
2022-12-14T21:18:20.694Z,90560.66
2022-12-14T21:21:08.381Z,90567.94
2022-12-14T21:23:55.939Z,90567.13
2022-12-14T21:26:43.504Z,90569.31
2022-12-14T21:29:36.674Z,90570.97
2022-12-14T21:32:24.263Z,90572.84
2022-12-14T21:35:11.829Z,90562.94
2022-12-14T21:37:59.406Z,90566.88
2022-12-14T21:40:46.949Z,90566.28
2022-12-14T21:43:34.523Z,90563.56
2022-12-14T21:46:24.487Z,90569.75
2022-12-14T21:49:15.493Z,90570.06
2022-12-14T21:52:07.173Z,90575.66
2022-12-14T21:54:55.184Z,90576.81
2022-12-14T21:57:42.770Z,90575.38
2022-12-14T22:00:30.346Z,90581.47
2022-12-14T22:03:17.930Z,90578.91
2022-12-14T22:06:05.662Z,90571.38
2022-12-14T22:08:53.245Z,90573.97
2022-12-14T22:11:40.812Z,90573.09
2022-12-14T22:14:28.359Z,90578.78
2022-12-14T22:17:15.981Z,90578.72
2022-12-14T22:20:03.570Z,90578.44
2022-12-14T22:22:51.145Z,90582.41
2022-12-14T22:25:38.700Z,90582.53
2022-12-14T22:28:26.257Z,90573.56
2022-12-14T22:31:13.816Z,90569.97
2022-12-14T22:34:01.383Z,90571.19
2022-12-14T22:36:48.939Z,90577.34
2022-12-14T22:39:36.522Z,90581.44
2022-12-14T22:42:24.115Z,90582.44
2022-12-14T22:45:11.660Z,90582.97
2022-12-14T22:47:59.226Z,90580.44
2022-12-14T22:50:46.785Z,90589.78
2022-12-14T22:53:34.370Z,90585.00
2022-12-14T22:56:21.970Z,90577.78
2022-12-14T22:59:09.543Z,90576.38
2022-12-14T23:01:57.177Z,90579.22
2022-12-14T23:04:44.834Z,90578.00
2022-12-14T23:07:32.383Z,90581.44
2022-12-14T23:10:19.944Z,90578.03
2022-12-14T23:13:07.530Z,90580.28
2022-12-14T23:15:55.091Z,90581.31
2022-12-14T23:18:42.655Z,90590.28
2022-12-14T23:21:30.200Z,90584.88
2022-12-14T23:24:17.761Z,90589.97
2022-12-14T23:27:09.445Z,90588.00
2022-12-14T23:29:57.534Z,90583.19
2022-12-14T23:32:45.135Z,90585.03
2022-12-14T23:35:32.698Z,90583.09
2022-12-14T23:38:20.259Z,90587.09
2022-12-14T23:41:07.816Z,90592.16
2022-12-14T23:43:55.419Z,90587.13
2022-12-14T23:46:43.096Z,90589.59
2022-12-14T23:49:30.722Z,90595.09
2022-12-14T23:52:18.273Z,90581.69
2022-12-14T23:55:05.862Z,90580.44
2022-12-14T23:57:53.423Z,90574.25
